createdAt,value
2022-10-07T00:02:15.321Z,73.72
2022-10-07T00:04:37.326Z,73.95
2022-10-07T00:06:59.051Z,75.37
2022-10-07T00:09:20.602Z,75.14
2022-10-07T00:11:42.643Z,74.61
2022-10-07T00:14:09.284Z,74.95
2022-10-07T00:16:33.888Z,74.74
2022-10-07T00:18:58.519Z,74.36
2022-10-07T00:21:20.550Z,74.54
2022-10-07T00:23:43.636Z,74.54
2022-10-07T00:26:07.816Z,74.85
2022-10-07T00:28:29.733Z,74.81
2022-10-07T00:30:57.895Z,75.31
2022-10-07T00:33:19.462Z,74.87
2022-10-07T00:35:40.954Z,74.54
2022-10-07T00:38:02.477Z,74.07
2022-10-07T00:40:23.928Z,73.64
2022-10-07T00:42:45.383Z,73.41
2022-10-07T00:45:14.987Z,73.62
2022-10-07T00:47:36.825Z,74.01
2022-10-07T00:49:58.217Z,75.89
2022-10-07T00:52:24.317Z,75.47
2022-10-07T00:54:46.998Z,75.13
2022-10-07T00:57:09.016Z,74.83
2022-10-07T00:59:30.608Z,76.18
2022-10-07T01:01:52.065Z,75.83
2022-10-07T01:04:15.225Z,74.71
2022-10-07T01:06:39.305Z,75.51
2022-10-07T01:09:00.774Z,78.23
2022-10-07T01:11:57.206Z,76.79
2022-10-07T01:14:29.392Z,75.47
2022-10-07T01:17:11.455Z,75.54
2022-10-07T01:19:51.024Z,75.23
2022-10-07T01:22:41.424Z,75.50
2022-10-07T01:25:25.030Z,75.13
2022-10-07T01:27:55.849Z,76.29
2022-10-07T01:30:19.321Z,77.09
2022-10-07T01:32:47.895Z,76.70
2022-10-07T01:35:16.321Z,75.89
2022-10-07T01:37:41.685Z,74.82
2022-10-07T01:40:12.596Z,74.68
2022-10-07T01:42:34.240Z,74.23
2022-10-07T01:44:58.677Z,74.47
2022-10-07T01:47:20.374Z,76.33
2022-10-07T01:49:41.801Z,75.28
2022-10-07T01:52:31.321Z,74.58
2022-10-07T01:55:06.423Z,74.26
2022-10-07T01:57:53.960Z,74.72
2022-10-07T02:00:16.707Z,74.76
2022-10-07T02:03:14.939Z,75.22
2022-10-07T02:05:54.411Z,77.52
2022-10-07T02:08:43.614Z,76.13
2022-10-07T02:11:13.561Z,75.55
2022-10-07T02:13:45.289Z,75.08
2022-10-07T02:16:29.160Z,75.24
2022-10-07T02:18:52.649Z,78.09
2022-10-07T02:21:15.240Z,75.91
2022-10-07T02:23:40.514Z,75.68
2022-10-07T02:26:04.450Z,76.22
2022-10-07T02:28:26.997Z,75.73
2022-10-07T02:30:54.173Z,75.44
2022-10-07T02:33:17.866Z,74.94
2022-10-07T02:35:55.407Z,74.89
2022-10-07T02:38:18.486Z,74.71
2022-10-07T02:41:00.846Z,74.82
2022-10-07T02:43:39.111Z,74.89
2022-10-07T02:46:11.962Z,76.31
2022-10-07T02:48:40.075Z,75.95
2022-10-07T02:51:06.161Z,75.82
2022-10-07T02:53:32.130Z,75.93
2022-10-07T02:55:56.660Z,75.21
2022-10-07T02:58:19.693Z,76.44
2022-10-07T03:00:50.948Z,76.01
2022-10-07T03:03:12.597Z,74.92
2022-10-07T03:05:35.364Z,75.10
2022-10-07T03:08:00.513Z,74.64
2022-10-07T03:10:22.209Z,75.46
2022-10-07T03:12:44.129Z,75.82
2022-10-07T03:15:06.213Z,76.16
2022-10-07T03:17:27.665Z,76.06
2022-10-07T03:19:49.508Z,75.53
2022-10-07T03:22:11.200Z,75.47
2022-10-07T03:24:32.663Z,74.94
2022-10-07T03:26:54.208Z,74.83
2022-10-07T03:29:15.983Z,74.73
2022-10-07T03:31:37.599Z,75.04
2022-10-07T03:33:59.658Z,74.83
2022-10-07T03:36:21.146Z,74.62
2022-10-07T03:38:42.620Z,75.31
2022-10-07T03:41:06.989Z,76.52
2022-10-07T03:43:28.914Z,76.62
2022-10-07T03:45:51.057Z,75.47
2022-10-07T03:48:12.740Z,75.05
2022-10-07T03:50:34.402Z,74.66
2022-10-07T03:52:56.338Z,74.40
2022-10-07T03:55:18.019Z,74.56
2022-10-07T03:57:53.359Z,74.44
2022-10-07T04:00:21.132Z,75.97
2022-10-07T04:02:42.905Z,75.88
2022-10-07T04:05:04.721Z,76.00
2022-10-07T04:07:26.158Z,76.91
2022-10-07T04:09:47.647Z,76.95
2022-10-07T04:12:09.115Z,76.30
2022-10-07T04:14:30.591Z,76.00
2022-10-07T04:16:52.039Z,75.43
2022-10-07T04:19:13.736Z,75.21
2022-10-07T04:21:35.260Z,75.81
2022-10-07T04:23:56.775Z,75.78
2022-10-07T04:26:18.245Z,76.17
2022-10-07T04:28:40.702Z,78.67
2022-10-07T04:31:09.441Z,77.29
2022-10-07T04:33:31.148Z,76.75
2022-10-07T04:35:52.586Z,76.53
2022-10-07T04:38:15.946Z,75.90
2022-10-07T04:40:42.178Z,76.98
2022-10-07T04:43:22.381Z,76.19
2022-10-07T04:45:43.869Z,75.58
2022-10-07T04:48:06.106Z,75.48
2022-10-07T04:50:28.288Z,75.64
2022-10-07T04:52:49.749Z,75.63
2022-10-07T04:55:14.393Z,75.87
2022-10-07T04:57:35.849Z,75.46
2022-10-07T04:59:57.297Z,76.10
2022-10-07T05:02:18.819Z,75.81
2022-10-07T05:04:40.321Z,77.10
2022-10-07T05:07:01.799Z,76.55
2022-10-07T05:09:23.277Z,77.38
2022-10-07T05:11:45.295Z,78.20
2022-10-07T05:14:07.444Z,77.48
2022-10-07T05:16:28.927Z,77.01
2022-10-07T05:18:50.677Z,77.12
2022-10-07T05:21:12.110Z,76.75
2022-10-07T05:23:35.909Z,76.47
2022-10-07T05:26:02.261Z,79.22
2022-10-07T05:28:24.223Z,77.76
2022-10-07T05:30:45.808Z,78.88
2022-10-07T05:33:09.687Z,77.20
2022-10-07T05:35:32.139Z,76.68
2022-10-07T05:37:53.936Z,76.31
2022-10-07T05:40:15.646Z,77.65
2022-10-07T05:42:37.112Z,77.91
2022-10-07T05:44:58.545Z,77.46
2022-10-07T05:47:20.261Z,77.17
2022-10-07T05:49:41.735Z,76.76
2022-10-07T05:52:04.180Z,77.59
2022-10-07T05:54:25.732Z,77.16
2022-10-07T05:56:47.156Z,76.52
2022-10-07T05:59:08.672Z,76.77
2022-10-07T06:01:30.178Z,76.67
2022-10-07T06:03:54.228Z,75.96
2022-10-07T06:06:15.699Z,76.97
2022-10-07T06:08:37.167Z,78.66
2022-10-07T06:11:22.058Z,77.57
2022-10-07T06:13:48.070Z,76.93
2022-10-07T06:16:10.122Z,76.39
2022-10-07T06:18:32.008Z,76.24
2022-10-07T06:20:58.423Z,78.11
2022-10-07T06:23:19.898Z,77.33
2022-10-07T06:25:41.485Z,76.99
2022-10-07T06:28:03.222Z,76.47
2022-10-07T06:30:25.834Z,77.82
2022-10-07T06:32:47.357Z,77.61
2022-10-07T06:35:09.169Z,77.76
2022-10-07T06:37:32.114Z,78.56
2022-10-07T06:39:57.413Z,78.13
2022-10-07T06:42:20.865Z,78.25
2022-10-07T06:44:43.041Z,77.95
2022-10-07T06:47:07.881Z,77.66
2022-10-07T06:49:33.089Z,77.61
2022-10-07T06:51:54.556Z,79.85
2022-10-07T06:54:15.992Z,78.87
2022-10-07T06:56:37.757Z,79.38
2022-10-07T06:58:59.477Z,79.86
2022-10-07T07:01:21.063Z,79.20
2022-10-07T07:03:42.736Z,80.67
2022-10-07T07:06:05.059Z,80.04
2022-10-07T07:08:34.613Z,79.52
2022-10-07T07:10:56.240Z,79.39
2022-10-07T07:13:18.197Z,79.62
2022-10-07T07:15:40.389Z,79.36
2022-10-07T07:18:02.899Z,78.82
2022-10-07T07:20:24.331Z,78.97
2022-10-07T07:22:45.811Z,79.54
2022-10-07T07:25:10.110Z,79.34
2022-10-07T07:27:32.549Z,79.59
2022-10-07T07:29:54.042Z,79.71
2022-10-07T07:32:15.831Z,80.64
2022-10-07T07:34:38.325Z,79.91
2022-10-07T07:36:59.965Z,79.47
2022-10-07T07:39:21.475Z,79.75
2022-10-07T07:41:46.842Z,79.66
2022-10-07T07:44:11.328Z,79.91
2022-10-07T07:46:38.932Z,80.21
2022-10-07T07:49:00.990Z,81.97
2022-10-07T07:51:22.810Z,81.15
2022-10-07T07:53:45.408Z,81.14
2022-10-07T07:56:07.121Z,82.09
2022-10-07T07:58:29.972Z,83.05
2022-10-07T08:01:13.622Z,82.10
2022-10-07T08:03:39.024Z,81.95
2022-10-07T08:06:02.075Z,84.23
2022-10-07T08:08:23.532Z,82.93
2022-10-07T08:10:49.637Z,84.04
2022-10-07T08:13:13.567Z,84.32
2022-10-07T08:15:35.116Z,84.42
2022-10-07T08:17:56.725Z,83.65
2022-10-07T08:20:18.203Z,85.69
2022-10-07T08:22:39.643Z,85.30
2022-10-07T08:25:01.194Z,85.84
2022-10-07T08:27:22.637Z,85.93
2022-10-07T08:29:44.092Z,86.28
2022-10-07T08:32:05.565Z,86.65
2022-10-07T08:34:27.183Z,85.42
2022-10-07T08:36:50.548Z,85.75
2022-10-07T08:39:12.008Z,85.27
2022-10-07T08:42:04.174Z,85.81
2022-10-07T08:44:34.254Z,85.58
2022-10-07T08:47:17.807Z,87.41
2022-10-07T08:49:54.504Z,87.08
2022-10-07T08:52:32.721Z,86.67
2022-10-07T08:54:54.407Z,86.42
2022-10-07T08:57:28.627Z,86.29
2022-10-07T08:59:58.227Z,86.02
2022-10-07T09:02:31.610Z,86.55
2022-10-07T09:05:25.024Z,86.42
2022-10-07T09:07:58.077Z,85.77
2022-10-07T09:10:37.440Z,85.23
2022-10-07T09:13:03.700Z,86.83
2022-10-07T09:15:28.188Z,89.28
2022-10-07T09:17:59.135Z,89.98
2022-10-07T09:20:31.708Z,88.15
2022-10-07T09:22:57.368Z,87.04
2022-10-07T09:25:21.857Z,88.11
2022-10-07T09:27:43.719Z,87.87
2022-10-07T09:30:06.731Z,87.71
2022-10-07T09:32:28.309Z,89.37
2022-10-07T09:34:49.905Z,89.17
2022-10-07T09:37:27.707Z,87.92
2022-10-07T09:39:51.960Z,87.16
2022-10-07T09:42:35.181Z,89.17
2022-10-07T09:45:00.250Z,87.54
2022-10-07T09:47:29.186Z,86.35
2022-10-07T09:49:56.539Z,86.39
2022-10-07T09:52:23.276Z,85.81
2022-10-07T09:54:47.960Z,85.36
2022-10-07T09:57:25.109Z,86.14
2022-10-07T09:59:46.603Z,86.11
2022-10-07T10:02:13.859Z,85.87
2022-10-07T10:04:37.662Z,84.59
2022-10-07T10:07:06.516Z,82.73
2022-10-07T10:09:28.161Z,82.59
2022-10-07T10:12:11.000Z,81.28
2022-10-07T10:14:42.785Z,79.70
2022-10-07T10:17:05.038Z,77.01
2022-10-07T10:19:28.640Z,76.27
2022-10-07T10:21:57.636Z,73.83
2022-10-07T10:24:39.171Z,73.98
2022-10-07T10:27:12.518Z,72.67
2022-10-07T10:30:10.775Z,70.97
2022-10-07T10:33:04.963Z,71.76
2022-10-07T10:35:29.864Z,71.03
2022-10-07T10:38:00.454Z,70.09
2022-10-07T10:40:42.163Z,70.11
2022-10-07T10:43:25.419Z,69.48
2022-10-07T10:46:28.739Z,68.48
2022-10-07T10:49:16.536Z,67.47
2022-10-07T10:52:29.672Z,67.97
2022-10-07T10:55:12.906Z,67.76
2022-10-07T10:58:29.996Z,66.56
2022-10-07T11:01:34.344Z,66.37
2022-10-07T11:04:25.212Z,63.90
2022-10-07T11:07:01.815Z,62.55
2022-10-07T11:09:36.860Z,63.15
2022-10-07T11:12:03.561Z,61.89
2022-10-07T11:14:25.883Z,63.06
2022-10-07T11:16:55.333Z,62.04
2022-10-07T11:19:43.373Z,60.71
2022-10-07T11:22:13.754Z,59.46
2022-10-07T11:24:40.706Z,57.82
2022-10-07T11:27:20.387Z,60.12
2022-10-07T11:29:57.269Z,57.11
2022-10-07T11:32:31.011Z,58.13
2022-10-07T11:35:06.555Z,57.06
2022-10-07T11:38:03.304Z,56.34
2022-10-07T11:40:29.688Z,56.66
2022-10-07T11:42:54.636Z,55.95
2022-10-07T11:45:25.834Z,56.43
2022-10-07T11:47:52.852Z,56.08
2022-10-07T11:50:28.043Z,53.60
2022-10-07T11:52:53.220Z,52.69
2022-10-07T11:55:29.033Z,53.16
2022-10-07T11:58:02.077Z,53.45
2022-10-07T12:00:32.442Z,54.65
2022-10-07T12:02:57.873Z,54.65
2022-10-07T12:05:34.522Z,52.36
2022-10-07T12:07:58.679Z,52.22
2022-10-07T12:10:24.004Z,50.88
2022-10-07T12:12:46.567Z,51.63
2022-10-07T12:15:35.814Z,50.43
2022-10-07T12:18:06.321Z,51.24
2022-10-07T12:20:34.596Z,52.28
2022-10-07T12:23:21.955Z,52.59
2022-10-07T12:25:53.570Z,52.90
2022-10-07T12:28:40.848Z,52.38
2022-10-07T12:31:05.355Z,51.28
2022-10-07T12:33:43.242Z,51.17
2022-10-07T12:36:22.747Z,50.75
2022-10-07T12:38:45.994Z,50.04
2022-10-07T12:41:17.863Z,49.53
2022-10-07T12:43:49.945Z,52.92
2022-10-07T12:46:18.812Z,52.11
2022-10-07T12:48:46.897Z,52.01
2022-10-07T12:51:19.323Z,52.30
2022-10-07T12:53:41.792Z,52.57
2022-10-07T12:56:05.632Z,51.48
2022-10-07T12:59:04.318Z,50.54
2022-10-07T13:01:52.507Z,50.59
2022-10-07T13:04:30.500Z,51.02
2022-10-07T13:07:25.254Z,50.94
2022-10-07T13:10:40.832Z,51.09
2022-10-07T13:13:11.763Z,49.32
2022-10-07T13:15:43.992Z,50.03
2022-10-07T13:18:40.493Z,50.97
2022-10-07T13:21:15.318Z,50.39
2022-10-07T13:23:37.205Z,50.00
2022-10-07T13:26:01.089Z,48.72
2022-10-07T13:28:27.015Z,48.77
2022-10-07T13:30:50.555Z,47.86
2022-10-07T13:33:24.504Z,48.58
2022-10-07T13:35:45.967Z,49.60
2022-10-07T13:38:27.434Z,49.78
2022-10-07T13:41:04.429Z,48.49
2022-10-07T13:43:29.977Z,49.28
2022-10-07T13:45:51.635Z,50.19
2022-10-07T13:48:18.024Z,49.53
2022-10-07T13:50:39.532Z,49.86
2022-10-07T13:53:01.494Z,49.44
2022-10-07T13:55:25.975Z,50.29
2022-10-07T13:57:47.963Z,50.21
2022-10-07T14:00:12.454Z,50.83
2022-10-07T14:02:39.167Z,51.38
2022-10-07T14:05:04.921Z,51.36
2022-10-07T14:07:28.728Z,53.37
2022-10-07T14:10:09.633Z,52.46
2022-10-07T14:12:40.525Z,52.92
2022-10-07T14:15:12.517Z,52.68
2022-10-07T14:17:55.263Z,52.75
2022-10-07T14:20:34.816Z,52.89
2022-10-07T14:22:59.077Z,52.82
2022-10-07T14:25:27.913Z,53.80
2022-10-07T14:27:49.351Z,53.81
2022-10-07T14:30:58.573Z,52.26
2022-10-07T14:34:01.078Z,52.49
2022-10-07T14:36:23.131Z,52.72
2022-10-07T14:38:47.073Z,52.62
2022-10-07T14:41:10.239Z,52.61
2022-10-07T14:43:33.533Z,52.23
2022-10-07T14:45:55.072Z,53.42
2022-10-07T14:48:16.577Z,52.78
2022-10-07T14:50:38.458Z,54.51
2022-10-07T14:52:59.945Z,54.91
2022-10-07T14:55:27.327Z,55.06
2022-10-07T14:57:49.138Z,53.04
2022-10-07T15:00:19.257Z,53.60
2022-10-07T15:02:40.770Z,53.55
2022-10-07T15:05:02.271Z,52.58
2022-10-07T15:07:24.006Z,52.69
2022-10-07T15:09:46.665Z,53.33
2022-10-07T15:12:11.012Z,52.87
2022-10-07T15:14:33.109Z,53.15
2022-10-07T15:16:54.624Z,52.86
2022-10-07T15:19:16.241Z,52.98
2022-10-07T15:21:37.718Z,52.99
2022-10-07T15:24:01.710Z,53.09
2022-10-07T15:26:24.698Z,52.73
2022-10-07T15:28:50.411Z,52.79
2022-10-07T15:31:11.878Z,52.57
2022-10-07T15:33:34.496Z,52.46
2022-10-07T15:35:56.474Z,53.02
2022-10-07T15:38:17.933Z,53.78
2022-10-07T15:40:53.413Z,54.11
2022-10-07T15:43:14.892Z,53.72
2022-10-07T15:45:36.344Z,54.20
2022-10-07T15:48:00.445Z,54.12
2022-10-07T15:50:22.245Z,54.40
2022-10-07T15:52:43.967Z,54.15
2022-10-07T15:55:07.802Z,54.38
2022-10-07T15:57:29.690Z,54.17
2022-10-07T15:59:51.294Z,54.82
2022-10-07T16:02:15.868Z,54.72
2022-10-07T16:04:37.479Z,54.42
2022-10-07T16:06:59.568Z,54.76
2022-10-07T16:09:22.099Z,54.64
2022-10-07T16:11:43.672Z,54.81
2022-10-07T16:14:05.204Z,54.90
2022-10-07T16:16:28.014Z,55.10
2022-10-07T16:18:51.238Z,55.70
2022-10-07T16:21:19.017Z,56.33
2022-10-07T16:23:45.392Z,56.63
2022-10-07T16:26:09.375Z,57.31
2022-10-07T16:28:49.948Z,58.16
2022-10-07T16:31:11.469Z,58.73
2022-10-07T16:33:32.997Z,59.05
2022-10-07T16:35:54.462Z,59.37
2022-10-07T16:38:15.957Z,60.04
2022-10-07T16:40:37.555Z,60.49
2022-10-07T16:42:59.676Z,61.21
2022-10-07T16:45:23.108Z,61.42
2022-10-07T16:47:44.937Z,62.79
2022-10-07T16:50:10.889Z,63.04
2022-10-07T16:52:34.356Z,63.75
2022-10-07T16:54:55.897Z,64.76
2022-10-07T16:57:17.354Z,65.60
2022-10-07T16:59:39.629Z,66.28
2022-10-07T17:02:03.210Z,66.87
2022-10-07T17:04:25.286Z,67.07
2022-10-07T17:06:47.382Z,66.56
2022-10-07T17:09:08.834Z,65.94
2022-10-07T17:11:35.888Z,66.32
2022-10-07T17:14:18.895Z,66.42
2022-10-07T17:16:51.769Z,68.22
2022-10-07T17:19:17.737Z,67.04
2022-10-07T17:21:41.845Z,67.42
2022-10-07T17:24:04.327Z,67.59
2022-10-07T17:26:27.198Z,68.70
2022-10-07T17:28:49.799Z,68.72
2022-10-07T17:31:12.975Z,68.38
2022-10-07T17:33:35.500Z,68.48
2022-10-07T17:36:06.878Z,68.28
2022-10-07T17:38:35.591Z,68.38
2022-10-07T17:40:57.143Z,69.02
2022-10-07T17:43:18.619Z,70.59
2022-10-07T17:45:41.772Z,69.75
2022-10-07T17:48:04.047Z,69.39
2022-10-07T17:50:25.490Z,71.15
2022-10-07T17:52:46.964Z,71.25
2022-10-07T17:55:09.199Z,71.23
2022-10-07T17:57:32.213Z,70.72
2022-10-07T17:59:53.671Z,71.06
2022-10-07T18:02:15.147Z,71.08
2022-10-07T18:04:36.618Z,70.90
2022-10-07T18:06:58.871Z,70.71
2022-10-07T18:09:22.130Z,71.43
2022-10-07T18:12:02.211Z,71.52
2022-10-07T18:14:59.176Z,71.77
2022-10-07T18:17:21.125Z,71.81
2022-10-07T18:19:44.975Z,73.00
2022-10-07T18:22:06.551Z,73.14
2022-10-07T18:24:28.889Z,73.16
2022-10-07T18:26:50.473Z,73.40
2022-10-07T18:29:11.934Z,73.07
2022-10-07T18:31:33.505Z,73.26
2022-10-07T18:33:56.498Z,72.90
2022-10-07T18:36:19.427Z,74.40
2022-10-07T18:38:42.588Z,73.56
2022-10-07T18:41:06.559Z,73.01
2022-10-07T18:43:28.796Z,73.16
2022-10-07T18:46:01.593Z,74.73
2022-10-07T18:48:23.116Z,74.17
2022-10-07T18:50:51.787Z,73.72
2022-10-07T18:53:13.260Z,75.26
2022-10-07T18:55:38.943Z,74.52
2022-10-07T18:58:00.400Z,76.06
2022-10-07T19:00:22.514Z,75.29
2022-10-07T19:02:46.093Z,74.86
2022-10-07T19:05:07.877Z,75.84
2022-10-07T19:07:31.051Z,74.75
2022-10-07T19:09:52.528Z,75.00
2022-10-07T19:12:32.573Z,75.42
2022-10-07T19:14:54.229Z,77.84
2022-10-07T19:17:15.723Z,77.35
2022-10-07T19:19:40.918Z,76.69
2022-10-07T19:22:02.361Z,77.23
2022-10-07T19:24:43.783Z,78.24
2022-10-07T19:27:05.237Z,77.64
2022-10-07T19:29:27.236Z,78.51
2022-10-07T19:31:49.827Z,79.75
2022-10-07T19:34:14.348Z,79.02
2022-10-07T19:36:39.865Z,78.85
2022-10-07T19:39:02.490Z,81.23
2022-10-07T19:41:27.303Z,80.05
2022-10-07T19:43:49.232Z,82.05
2022-10-07T19:46:12.375Z,80.19
2022-10-07T19:48:34.615Z,79.89
2022-10-07T19:50:57.092Z,79.51
2022-10-07T19:53:18.520Z,79.90
2022-10-07T19:55:44.629Z,78.99
2022-10-07T19:58:06.092Z,78.70
2022-10-07T20:00:30.188Z,78.61
2022-10-07T20:02:56.226Z,81.05
2022-10-07T20:05:18.056Z,79.47
2022-10-07T20:07:39.502Z,78.95
2022-10-07T20:10:00.947Z,79.65
2022-10-07T20:12:22.396Z,79.98
2022-10-07T20:14:43.904Z,83.11
2022-10-07T20:17:06.666Z,81.66
2022-10-07T20:19:28.144Z,81.11
2022-10-07T20:21:49.643Z,82.49
2022-10-07T20:24:17.216Z,84.48
2022-10-07T20:26:39.015Z,82.15
2022-10-07T20:29:01.931Z,82.51
2022-10-07T20:31:25.810Z,82.52
2022-10-07T20:33:50.092Z,81.77
2022-10-07T20:36:13.542Z,80.76
2022-10-07T20:38:54.999Z,81.17
2022-10-07T20:41:35.164Z,83.12
2022-10-07T20:43:56.605Z,82.30
2022-10-07T20:46:18.087Z,82.62
2022-10-07T20:48:43.535Z,84.10
2022-10-07T20:51:08.306Z,84.57
2022-10-07T20:53:29.804Z,84.79
2022-10-07T20:55:51.274Z,83.75
2022-10-07T20:58:13.700Z,84.95
2022-10-07T21:00:35.153Z,84.51
2022-10-07T21:02:56.648Z,83.56
2022-10-07T21:05:18.111Z,88.74
2022-10-07T21:07:39.707Z,85.92
2022-10-07T21:10:01.171Z,85.86
2022-10-07T21:12:23.012Z,85.83
2022-10-07T21:14:44.571Z,85.45
2022-10-07T21:17:06.919Z,84.41
2022-10-07T21:19:31.597Z,84.28
2022-10-07T21:21:53.110Z,85.42
2022-10-07T21:24:14.631Z,83.48
2022-10-07T21:26:36.934Z,83.39
2022-10-07T21:28:58.372Z,83.15
2022-10-07T21:31:22.125Z,83.50
2022-10-07T21:33:46.330Z,83.18
2022-10-07T21:36:12.295Z,83.63
2022-10-07T21:38:34.639Z,85.19
2022-10-07T21:40:56.104Z,86.20
2022-10-07T21:43:18.577Z,85.79
2022-10-07T21:45:41.340Z,87.00
2022-10-07T21:48:02.806Z,86.11
2022-10-07T21:50:24.731Z,87.57
2022-10-07T21:52:46.333Z,85.77
2022-10-07T21:55:08.556Z,85.46
2022-10-07T21:57:29.977Z,85.49
2022-10-07T21:59:52.381Z,86.78
2022-10-07T22:02:13.913Z,85.85
2022-10-07T22:04:35.443Z,85.44
2022-10-07T22:07:16.399Z,86.07
2022-10-07T22:09:37.912Z,85.26
2022-10-07T22:11:59.461Z,86.85
2022-10-07T22:14:20.994Z,86.26
2022-10-07T22:16:42.701Z,85.71
2022-10-07T22:19:05.393Z,85.06
2022-10-07T22:21:29.492Z,86.04
2022-10-07T22:23:56.118Z,85.90
2022-10-07T22:26:18.928Z,87.15
2022-10-07T22:28:41.140Z,87.04
2022-10-07T22:31:04.200Z,85.95
2022-10-07T22:33:26.065Z,86.57
2022-10-07T22:35:47.595Z,86.50
2022-10-07T22:38:09.200Z,85.51
2022-10-07T22:40:30.695Z,85.23
2022-10-07T22:42:52.548Z,86.09
2022-10-07T22:45:14.100Z,85.97
2022-10-07T22:47:36.154Z,87.15
2022-10-07T22:49:57.642Z,88.41
2022-10-07T22:52:19.077Z,87.32
2022-10-07T22:54:40.704Z,87.83
2022-10-07T22:57:02.252Z,86.53
2022-10-07T22:59:23.721Z,86.43
2022-10-07T23:01:45.216Z,86.85
2022-10-07T23:04:06.721Z,88.42
2022-10-07T23:06:29.525Z,88.08
2022-10-07T23:08:51.020Z,88.03
2022-10-07T23:11:17.304Z,86.70
2022-10-07T23:13:38.798Z,86.84
2022-10-07T23:16:05.704Z,87.53
2022-10-07T23:18:28.593Z,86.93
2022-10-07T23:21:00.786Z,87.62
2022-10-07T23:23:22.287Z,88.13
2022-10-07T23:25:43.771Z,87.33
2022-10-07T23:28:05.260Z,87.37
2022-10-07T23:30:26.709Z,90.59
2022-10-07T23:32:48.656Z,89.54
2022-10-07T23:35:11.689Z,89.05
2022-10-07T23:37:33.137Z,90.21
2022-10-07T23:39:54.591Z,91.18
2022-10-07T23:42:16.069Z,90.56
2022-10-07T23:44:38.360Z,90.90
2022-10-07T23:46:59.800Z,91.56
2022-10-07T23:49:21.299Z,90.10
2022-10-07T23:51:42.769Z,89.68
2022-10-07T23:54:05.104Z,89.51
2022-10-07T23:56:26.730Z,92.87
2022-10-07T23:58:48.324Z,90.63
